sensor_id;sensor_type;location;lat;lon;timestamp;P1;durP1;ratioP1;P2;durP2;ratioP2
13067;SDS011;6600;51.362;6.686;2023-08-12T00:01:26;4.27;;;3.07;;
13067;SDS011;6600;51.362;6.686;2023-08-12T00:03:51;4.83;;;3.10;;
13067;SDS011;6600;51.362;6.686;2023-08-12T00:06:17;6.53;;;3.13;;
13067;SDS011;6600;51.362;6.686;2023-08-12T00:08:42;4.90;;;3.10;;
13067;SDS011;6600;51.362;6.686;2023-08-12T00:11:07;5.93;;;3.53;;
13067;SDS011;6600;51.362;6.686;2023-08-12T00:13:33;8.23;;;3.80;;
13067;SDS011;6600;51.362;6.686;2023-08-12T00:15:58;6.70;;;3.70;;
13067;SDS011;6600;51.362;6.686;2023-08-12T00:18:24;4.57;;;3.37;;
13067;SDS011;6600;51.362;6.686;2023-08-12T00:20:49;5.70;;;3.50;;
13067;SDS011;6600;51.362;6.686;2023-08-12T00:23:15;5.93;;;3.77;;
13067;SDS011;6600;51.362;6.686;2023-08-12T00:25:40;6.73;;;4.20;;
13067;SDS011;6600;51.362;6.686;2023-08-12T00:28:05;9.50;;;4.17;;
13067;SDS011;6600;51.362;6.686;2023-08-12T00:30:31;7.37;;;4.57;;
13067;SDS011;6600;51.362;6.686;2023-08-12T00:32:56;8.73;;;4.40;;
13067;SDS011;6600;51.362;6.686;2023-08-12T00:35:21;7.03;;;4.23;;
13067;SDS011;6600;51.362;6.686;2023-08-12T00:37:47;8.43;;;5.20;;
13067;SDS011;6600;51.362;6.686;2023-08-12T00:40:12;9.80;;;5.27;;
13067;SDS011;6600;51.362;6.686;2023-08-12T00:42:38;10.27;;;5.30;;
13067;SDS011;6600;51.362;6.686;2023-08-12T00:45:04;8.63;;;5.37;;
13067;SDS011;6600;51.362;6.686;2023-08-12T00:47:34;7.80;;;4.33;;
13067;SDS011;6600;51.362;6.686;2023-08-12T00:50:00;7.80;;;5.00;;
13067;SDS011;6600;51.362;6.686;2023-08-12T00:52:25;7.30;;;4.87;;
13067;SDS011;6600;51.362;6.686;2023-08-12T00:54:51;8.07;;;5.70;;
13067;SDS011;6600;51.362;6.686;2023-08-12T00:57:17;8.47;;;4.47;;
13067;SDS011;6600;51.362;6.686;2023-08-12T00:59:42;9.73;;;5.97;;
13067;SDS011;6600;51.362;6.686;2023-08-12T01:02:10;6.80;;;4.80;;
13067;SDS011;6600;51.362;6.686;2023-08-12T01:04:36;10.43;;;5.03;;
13067;SDS011;6600;51.362;6.686;2023-08-12T01:07:02;8.87;;;5.40;;
13067;SDS011;6600;51.362;6.686;2023-08-12T01:09:28;9.73;;;5.67;;
13067;SDS011;6600;51.362;6.686;2023-08-12T01:12:05;9.50;;;5.50;;
13067;SDS011;6600;51.362;6.686;2023-08-12T01:14:41;7.53;;;4.67;;
13067;SDS011;6600;51.362;6.686;2023-08-12T01:17:14;7.43;;;4.40;;
13067;SDS011;6600;51.362;6.686;2023-08-12T01:19:40;10.70;;;5.13;;
13067;SDS011;6600;51.362;6.686;2023-08-12T01:22:08;10.53;;;6.30;;
13067;SDS011;6600;51.362;6.686;2023-08-12T01:24:36;9.87;;;5.23;;
13067;SDS011;6600;51.362;6.686;2023-08-12T01:27:03;8.87;;;6.00;;
13067;SDS011;6600;51.362;6.686;2023-08-12T01:29:29;10.53;;;5.47;;
13067;SDS011;6600;51.362;6.686;2023-08-12T01:31:58;10.00;;;5.23;;
13067;SDS011;6600;51.362;6.686;2023-08-12T01:37:14;9.67;;;6.00;;
13067;SDS011;6600;51.362;6.686;2023-08-12T01:39:47;8.97;;;5.10;;
13067;SDS011;6600;51.362;6.686;2023-08-12T01:42:14;10.57;;;5.27;;
13067;SDS011;6600;51.362;6.686;2023-08-12T01:44:41;8.53;;;5.33;;
13067;SDS011;6600;51.362;6.686;2023-08-12T01:47:08;7.90;;;5.00;;
13067;SDS011;6600;51.362;6.686;2023-08-12T01:49:34;8.43;;;5.47;;
13067;SDS011;6600;51.362;6.686;2023-08-12T01:51:59;9.73;;;4.47;;
13067;SDS011;6600;51.362;6.686;2023-08-12T01:54:24;9.40;;;5.10;;
13067;SDS011;6600;51.362;6.686;2023-08-12T01:56:50;6.87;;;5.17;;
13067;SDS011;6600;51.362;6.686;2023-08-12T01:59:15;6.93;;;4.90;;
13067;SDS011;6600;51.362;6.686;2023-08-12T02:01:40;9.27;;;5.13;;
13067;SDS011;6600;51.362;6.686;2023-08-12T02:04:06;9.10;;;5.43;;
13067;SDS011;6600;51.362;6.686;2023-08-12T02:06:31;10.00;;;5.20;;
13067;SDS011;6600;51.362;6.686;2023-08-12T02:08:56;7.37;;;5.60;;
13067;SDS011;6600;51.362;6.686;2023-08-12T02:11:21;7.80;;;5.10;;
13067;SDS011;6600;51.362;6.686;2023-08-12T02:13:47;12.33;;;6.70;;
13067;SDS011;6600;51.362;6.686;2023-08-12T02:16:12;8.83;;;5.73;;
13067;SDS011;6600;51.362;6.686;2023-08-12T02:18:37;7.93;;;5.27;;
13067;SDS011;6600;51.362;6.686;2023-08-12T02:21:03;8.23;;;4.83;;
13067;SDS011;6600;51.362;6.686;2023-08-12T02:23:28;7.27;;;4.57;;
13067;SDS011;6600;51.362;6.686;2023-08-12T02:25:53;8.27;;;5.03;;
13067;SDS011;6600;51.362;6.686;2023-08-12T02:28:19;5.57;;;4.23;;
13067;SDS011;6600;51.362;6.686;2023-08-12T02:30:45;6.80;;;4.77;;
13067;SDS011;6600;51.362;6.686;2023-08-12T02:33:10;9.40;;;6.20;;
13067;SDS011;6600;51.362;6.686;2023-08-12T02:35:35;7.63;;;4.80;;
13067;SDS011;6600;51.362;6.686;2023-08-12T02:38:01;9.63;;;6.23;;
13067;SDS011;6600;51.362;6.686;2023-08-12T02:40:26;9.10;;;6.03;;
13067;SDS011;6600;51.362;6.686;2023-08-12T02:42:51;8.43;;;5.07;;
13067;SDS011;6600;51.362;6.686;2023-08-12T02:45:17;10.37;;;5.83;;
13067;SDS011;6600;51.362;6.686;2023-08-12T02:47:42;11.17;;;6.53;;
13067;SDS011;6600;51.362;6.686;2023-08-12T02:50:07;10.83;;;6.10;;
13067;SDS011;6600;51.362;6.686;2023-08-12T02:52:33;8.47;;;5.87;;
13067;SDS011;6600;51.362;6.686;2023-08-12T02:54:58;8.73;;;4.97;;
13067;SDS011;6600;51.362;6.686;2023-08-12T02:57:24;12.33;;;6.37;;
13067;SDS011;6600;51.362;6.686;2023-08-12T02:59:49;10.17;;;6.00;;
13067;SDS011;6600;51.362;6.686;2023-08-12T03:02:14;10.43;;;6.10;;
13067;SDS011;6600;51.362;6.686;2023-08-12T03:04:41;12.60;;;6.10;;
13067;SDS011;6600;51.362;6.686;2023-08-12T03:07:06;11.57;;;6.77;;
13067;SDS011;6600;51.362;6.686;2023-08-12T03:09:32;9.40;;;5.87;;
13067;SDS011;6600;51.362;6.686;2023-08-12T03:11:57;9.77;;;6.50;;
13067;SDS011;6600;51.362;6.686;2023-08-12T03:14:26;10.80;;;6.07;;
13067;SDS011;6600;51.362;6.686;2023-08-12T03:16:52;13.47;;;7.33;;
13067;SDS011;6600;51.362;6.686;2023-08-12T03:19:17;9.43;;;5.60;;
13067;SDS011;6600;51.362;6.686;2023-08-12T03:21:43;12.33;;;6.77;;
13067;SDS011;6600;51.362;6.686;2023-08-12T03:24:08;11.30;;;6.27;;
13067;SDS011;6600;51.362;6.686;2023-08-12T03:26:33;12.73;;;6.87;;
13067;SDS011;6600;51.362;6.686;2023-08-12T03:28:59;8.77;;;5.70;;
13067;SDS011;6600;51.362;6.686;2023-08-12T03:31:24;8.93;;;5.93;;
13067;SDS011;6600;51.362;6.686;2023-08-12T03:33:49;13.87;;;6.57;;
13067;SDS011;6600;51.362;6.686;2023-08-12T03:36:14;10.10;;;7.43;;
13067;SDS011;6600;51.362;6.686;2023-08-12T03:38:40;11.73;;;7.13;;
13067;SDS011;6600;51.362;6.686;2023-08-12T03:41:06;12.90;;;6.57;;
13067;SDS011;6600;51.362;6.686;2023-08-12T03:43:32;10.53;;;6.57;;
13067;SDS011;6600;51.362;6.686;2023-08-12T03:45:58;12.97;;;6.37;;
13067;SDS011;6600;51.362;6.686;2023-08-12T03:48:24;10.70;;;5.87;;
13067;SDS011;6600;51.362;6.686;2023-08-12T03:50:49;10.63;;;6.77;;
13067;SDS011;6600;51.362;6.686;2023-08-12T03:53:14;10.90;;;6.77;;
13067;SDS011;6600;51.362;6.686;2023-08-12T03:55:41;10.10;;;6.47;;
13067;SDS011;6600;51.362;6.686;2023-08-12T03:58:06;9.80;;;6.33;;
13067;SDS011;6600;51.362;6.686;2023-08-12T04:00:31;14.07;;;7.80;;
13067;SDS011;6600;51.362;6.686;2023-08-12T04:02:57;14.00;;;6.70;;
13067;SDS011;6600;51.362;6.686;2023-08-12T04:05:22;12.83;;;7.17;;
13067;SDS011;6600;51.362;6.686;2023-08-12T04:07:47;10.60;;;6.27;;
13067;SDS011;6600;51.362;6.686;2023-08-12T04:10:13;13.10;;;6.37;;
13067;SDS011;6600;51.362;6.686;2023-08-12T04:12:39;9.97;;;5.73;;
13067;SDS011;6600;51.362;6.686;2023-08-12T04:15:06;8.60;;;6.20;;
13067;SDS011;6600;51.362;6.686;2023-08-12T04:17:32;9.67;;;5.57;;
13067;SDS011;6600;51.362;6.686;2023-08-12T04:19:57;8.27;;;4.97;;
13067;SDS011;6600;51.362;6.686;2023-08-12T04:22:23;8.87;;;5.20;;
13067;SDS011;6600;51.362;6.686;2023-08-12T04:24:48;8.73;;;5.30;;
13067;SDS011;6600;51.362;6.686;2023-08-12T04:27:14;10.07;;;5.83;;
13067;SDS011;6600;51.362;6.686;2023-08-12T04:29:41;8.87;;;5.20;;
13067;SDS011;6600;51.362;6.686;2023-08-12T04:32:06;8.87;;;5.50;;
13067;SDS011;6600;51.362;6.686;2023-08-12T04:34:32;6.73;;;4.87;;
13067;SDS011;6600;51.362;6.686;2023-08-12T04:36:57;7.90;;;5.20;;
13067;SDS011;6600;51.362;6.686;2023-08-12T04:39:23;6.93;;;4.40;;
13067;SDS011;6600;51.362;6.686;2023-08-12T04:41:48;7.53;;;4.83;;
13067;SDS011;6600;51.362;6.686;2023-08-12T04:44:13;11.53;;;6.07;;
13067;SDS011;6600;51.362;6.686;2023-08-12T04:46:39;6.77;;;4.47;;
13067;SDS011;6600;51.362;6.686;2023-08-12T04:49:04;8.07;;;5.43;;
13067;SDS011;6600;51.362;6.686;2023-08-12T04:51:30;7.97;;;5.20;;
13067;SDS011;6600;51.362;6.686;2023-08-12T04:53:55;11.10;;;6.47;;
13067;SDS011;6600;51.362;6.686;2023-08-12T04:56:20;7.70;;;5.33;;
13067;SDS011;6600;51.362;6.686;2023-08-12T04:58:46;7.77;;;5.70;;
13067;SDS011;6600;51.362;6.686;2023-08-12T05:01:11;6.97;;;4.87;;
13067;SDS011;6600;51.362;6.686;2023-08-12T05:03:37;14.10;;;6.00;;
13067;SDS011;6600;51.362;6.686;2023-08-12T05:06:02;8.73;;;5.33;;
13067;SDS011;6600;51.362;6.686;2023-08-12T05:08:28;8.23;;;5.40;;
13067;SDS011;6600;51.362;6.686;2023-08-12T05:10:53;12.40;;;5.93;;
13067;SDS011;6600;51.362;6.686;2023-08-12T05:13:19;12.13;;;6.40;;
13067;SDS011;6600;51.362;6.686;2023-08-12T05:15:45;11.70;;;6.57;;
13067;SDS011;6600;51.362;6.686;2023-08-12T05:18:13;11.53;;;7.27;;
13067;SDS011;6600;51.362;6.686;2023-08-12T05:20:39;11.63;;;7.73;;
13067;SDS011;6600;51.362;6.686;2023-08-12T05:23:06;13.07;;;7.33;;
13067;SDS011;6600;51.362;6.686;2023-08-12T05:25:31;15.07;;;8.60;;
13067;SDS011;6600;51.362;6.686;2023-08-12T05:27:56;12.03;;;8.40;;
13067;SDS011;6600;51.362;6.686;2023-08-12T05:30:22;13.27;;;8.40;;
13067;SDS011;6600;51.362;6.686;2023-08-12T05:32:47;20.30;;;9.23;;
13067;SDS011;6600;51.362;6.686;2023-08-12T05:35:12;18.10;;;8.77;;
13067;SDS011;6600;51.362;6.686;2023-08-12T05:37:38;16.33;;;8.37;;
13067;SDS011;6600;51.362;6.686;2023-08-12T05:40:03;17.40;;;9.37;;
13067;SDS011;6600;51.362;6.686;2023-08-12T05:42:33;12.67;;;7.13;;
13067;SDS011;6600;51.362;6.686;2023-08-12T05:44:58;15.77;;;8.97;;
13067;SDS011;6600;51.362;6.686;2023-08-12T05:47:23;9.90;;;6.67;;
13067;SDS011;6600;51.362;6.686;2023-08-12T05:49:49;12.47;;;7.77;;
13067;SDS011;6600;51.362;6.686;2023-08-12T05:52:14;12.73;;;8.00;;
13067;SDS011;6600;51.362;6.686;2023-08-12T05:54:39;17.77;;;9.57;;
13067;SDS011;6600;51.362;6.686;2023-08-12T05:57:04;14.23;;;8.60;;
13067;SDS011;6600;51.362;6.686;2023-08-12T05:59:30;12.40;;;7.57;;
13067;SDS011;6600;51.362;6.686;2023-08-12T06:01:55;15.93;;;7.57;;
13067;SDS011;6600;51.362;6.686;2023-08-12T06:04:21;15.17;;;7.47;;
13067;SDS011;6600;51.362;6.686;2023-08-12T06:06:46;14.73;;;8.53;;
13067;SDS011;6600;51.362;6.686;2023-08-12T06:09:11;12.23;;;7.23;;
13067;SDS011;6600;51.362;6.686;2023-08-12T06:11:36;10.63;;;7.50;;
13067;SDS011;6600;51.362;6.686;2023-08-12T06:14:02;13.23;;;7.70;;
13067;SDS011;6600;51.362;6.686;2023-08-12T06:16:27;11.67;;;8.30;;
13067;SDS011;6600;51.362;6.686;2023-08-12T06:18:52;11.63;;;7.63;;
13067;SDS011;6600;51.362;6.686;2023-08-12T06:21:18;13.30;;;7.27;;
13067;SDS011;6600;51.362;6.686;2023-08-12T06:23:43;12.27;;;7.27;;
13067;SDS011;6600;51.362;6.686;2023-08-12T06:26:08;12.77;;;6.63;;
13067;SDS011;6600;51.362;6.686;2023-08-12T06:28:34;11.57;;;7.57;;
13067;SDS011;6600;51.362;6.686;2023-08-12T06:30:59;8.07;;;6.00;;
13067;SDS011;6600;51.362;6.686;2023-08-12T06:33:25;11.43;;;6.60;;
13067;SDS011;6600;51.362;6.686;2023-08-12T06:35:50;11.47;;;7.00;;
13067;SDS011;6600;51.362;6.686;2023-08-12T06:38:16;9.57;;;6.13;;
13067;SDS011;6600;51.362;6.686;2023-08-12T06:40:41;9.33;;;6.47;;
13067;SDS011;6600;51.362;6.686;2023-08-12T06:43:06;10.40;;;5.07;;
13067;SDS011;6600;51.362;6.686;2023-08-12T06:45:33;9.60;;;6.40;;
13067;SDS011;6600;51.362;6.686;2023-08-12T06:47:59;9.20;;;6.30;;
13067;SDS011;6600;51.362;6.686;2023-08-12T06:50:24;9.67;;;5.90;;
13067;SDS011;6600;51.362;6.686;2023-08-12T06:52:50;7.73;;;4.63;;
13067;SDS011;6600;51.362;6.686;2023-08-12T06:55:15;7.80;;;5.43;;
13067;SDS011;6600;51.362;6.686;2023-08-12T06:57:40;6.80;;;4.73;;
13067;SDS011;6600;51.362;6.686;2023-08-12T07:00:06;8.00;;;5.90;;
13067;SDS011;6600;51.362;6.686;2023-08-12T07:02:31;6.63;;;4.93;;
13067;SDS011;6600;51.362;6.686;2023-08-12T07:04:57;8.80;;;5.43;;
13067;SDS011;6600;51.362;6.686;2023-08-12T07:07:22;6.47;;;4.73;;
13067;SDS011;6600;51.362;6.686;2023-08-12T07:09:47;5.50;;;4.67;;
13067;SDS011;6600;51.362;6.686;2023-08-12T07:12:13;6.13;;;4.63;;
13067;SDS011;6600;51.362;6.686;2023-08-12T07:14:38;7.67;;;4.87;;
13067;SDS011;6600;51.362;6.686;2023-08-12T07:17:03;5.67;;;4.20;;
13067;SDS011;6600;51.362;6.686;2023-08-12T07:19:29;6.57;;;4.33;;
13067;SDS011;6600;51.362;6.686;2023-08-12T07:21:54;6.23;;;4.33;;
13067;SDS011;6600;51.362;6.686;2023-08-12T07:24:19;5.83;;;3.97;;
13067;SDS011;6600;51.362;6.686;2023-08-12T07:26:45;5.80;;;4.20;;
13067;SDS011;6600;51.362;6.686;2023-08-12T07:29:10;5.00;;;4.17;;
13067;SDS011;6600;51.362;6.686;2023-08-12T07:31:35;6.57;;;4.70;;
13067;SDS011;6600;51.362;6.686;2023-08-12T07:34:01;7.07;;;3.93;;
13067;SDS011;6600;51.362;6.686;2023-08-12T07:36:26;5.30;;;4.10;;
13067;SDS011;6600;51.362;6.686;2023-08-12T07:38:52;5.57;;;4.37;;
13067;SDS011;6600;51.362;6.686;2023-08-12T07:41:17;6.90;;;4.27;;
13067;SDS011;6600;51.362;6.686;2023-08-12T07:43:43;5.73;;;4.27;;
13067;SDS011;6600;51.362;6.686;2023-08-12T07:46:08;4.90;;;4.07;;
13067;SDS011;6600;51.362;6.686;2023-08-12T07:48:33;7.77;;;5.13;;
13067;SDS011;6600;51.362;6.686;2023-08-12T07:50:59;6.67;;;4.50;;
13067;SDS011;6600;51.362;6.686;2023-08-12T07:53:25;7.70;;;4.63;;
13067;SDS011;6600;51.362;6.686;2023-08-12T07:55:51;6.40;;;4.70;;
13067;SDS011;6600;51.362;6.686;2023-08-12T07:58:16;6.23;;;4.47;;
13067;SDS011;6600;51.362;6.686;2023-08-12T08:00:42;6.30;;;3.70;;
13067;SDS011;6600;51.362;6.686;2023-08-12T08:03:07;7.17;;;4.33;;
13067;SDS011;6600;51.362;6.686;2023-08-12T08:05:32;3.13;;;2.80;;
13067;SDS011;6600;51.362;6.686;2023-08-12T08:07:58;3.43;;;3.03;;
13067;SDS011;6600;51.362;6.686;2023-08-12T08:10:23;4.60;;;2.90;;
13067;SDS011;6600;51.362;6.686;2023-08-12T08:12:49;3.87;;;3.07;;
13067;SDS011;6600;51.362;6.686;2023-08-12T08:15:14;2.87;;;2.63;;
13067;SDS011;6600;51.362;6.686;2023-08-12T08:17:39;2.67;;;2.43;;
13067;SDS011;6600;51.362;6.686;2023-08-12T08:20:05;3.73;;;2.67;;
13067;SDS011;6600;51.362;6.686;2023-08-12T08:22:31;3.40;;;3.00;;
13067;SDS011;6600;51.362;6.686;2023-08-12T08:24:57;4.13;;;2.97;;
13067;SDS011;6600;51.362;6.686;2023-08-12T08:27:22;2.60;;;2.30;;
13067;SDS011;6600;51.362;6.686;2023-08-12T08:29:48;3.27;;;2.43;;
13067;SDS011;6600;51.362;6.686;2023-08-12T08:32:13;3.00;;;2.50;;
13067;SDS011;6600;51.362;6.686;2023-08-12T08:34:39;4.33;;;2.20;;
13067;SDS011;6600;51.362;6.686;2023-08-12T08:37:04;2.87;;;2.07;;
13067;SDS011;6600;51.362;6.686;2023-08-12T08:39:30;3.50;;;2.57;;
13067;SDS011;6600;51.362;6.686;2023-08-12T08:41:56;3.37;;;2.40;;
13067;SDS011;6600;51.362;6.686;2023-08-12T08:44:23;2.73;;;2.40;;
13067;SDS011;6600;51.362;6.686;2023-08-12T08:46:51;3.63;;;2.70;;
13067;SDS011;6600;51.362;6.686;2023-08-12T08:49:18;3.23;;;2.60;;
13067;SDS011;6600;51.362;6.686;2023-08-12T08:51:45;3.20;;;2.30;;
13067;SDS011;6600;51.362;6.686;2023-08-12T08:54:12;3.30;;;2.50;;
13067;SDS011;6600;51.362;6.686;2023-08-12T08:56:38;3.40;;;2.20;;
13067;SDS011;6600;51.362;6.686;2023-08-12T08:59:04;3.80;;;2.63;;
13067;SDS011;6600;51.362;6.686;2023-08-12T09:01:29;3.57;;;1.80;;
13067;SDS011;6600;51.362;6.686;2023-08-12T09:03:56;2.67;;;1.67;;
13067;SDS011;6600;51.362;6.686;2023-08-12T09:06:23;4.07;;;2.47;;
13067;SDS011;6600;51.362;6.686;2023-08-12T09:08:53;1.97;;;1.77;;
13067;SDS011;6600;51.362;6.686;2023-08-12T09:11:19;2.77;;;2.17;;
13067;SDS011;6600;51.362;6.686;2023-08-12T09:13:45;1.83;;;1.73;;
13067;SDS011;6600;51.362;6.686;2023-08-12T09:16:11;3.17;;;1.90;;
13067;SDS011;6600;51.362;6.686;2023-08-12T09:18:36;2.17;;;1.50;;
13067;SDS011;6600;51.362;6.686;2023-08-12T09:21:02;1.57;;;1.43;;
13067;SDS011;6600;51.362;6.686;2023-08-12T09:23:28;3.30;;;2.20;;
13067;SDS011;6600;51.362;6.686;2023-08-12T09:26:00;2.63;;;1.97;;
13067;SDS011;6600;51.362;6.686;2023-08-12T09:28:26;4.33;;;2.53;;
13067;SDS011;6600;51.362;6.686;2023-08-12T09:30:51;2.07;;;1.90;;
13067;SDS011;6600;51.362;6.686;2023-08-12T09:33:25;2.17;;;1.90;;
13067;SDS011;6600;51.362;6.686;2023-08-12T09:35:54;1.30;;;1.20;;
13067;SDS011;6600;51.362;6.686;2023-08-12T09:38:21;1.20;;;0.90;;
13067;SDS011;6600;51.362;6.686;2023-08-12T09:40:47;1.10;;;1.00;;
13067;SDS011;6600;51.362;6.686;2023-08-12T09:43:13;0.90;;;0.90;;
13067;SDS011;6600;51.362;6.686;2023-08-12T09:45:38;1.73;;;0.90;;
13067;SDS011;6600;51.362;6.686;2023-08-12T09:48:04;1.20;;;1.07;;
13067;SDS011;6600;51.362;6.686;2023-08-12T09:50:30;1.20;;;1.10;;
13067;SDS011;6600;51.362;6.686;2023-08-12T09:52:55;1.97;;;0.90;;
13067;SDS011;6600;51.362;6.686;2023-08-12T09:55:22;0.90;;;0.90;;
13067;SDS011;6600;51.362;6.686;2023-08-12T09:57:53;0.80;;;0.80;;
13067;SDS011;6600;51.362;6.686;2023-08-12T10:00:21;0.90;;;0.90;;
13067;SDS011;6600;51.362;6.686;2023-08-12T10:02:48;1.10;;;0.80;;
13067;SDS011;6600;51.362;6.686;2023-08-12T10:05:19;0.87;;;0.87;;
13067;SDS011;6600;51.362;6.686;2023-08-12T10:07:59;0.80;;;0.80;;
13067;SDS011;6600;51.362;6.686;2023-08-12T10:10:26;0.90;;;0.90;;
13067;SDS011;6600;51.362;6.686;2023-08-12T10:12:52;1.00;;;0.93;;
13067;SDS011;6600;51.362;6.686;2023-08-12T10:15:18;2.43;;;1.03;;
13067;SDS011;6600;51.362;6.686;2023-08-12T10:17:44;0.70;;;0.70;;
13067;SDS011;6600;51.362;6.686;2023-08-12T10:20:17;1.20;;;0.90;;
13067;SDS011;6600;51.362;6.686;2023-08-12T10:22:46;1.10;;;1.00;;
13067;SDS011;6600;51.362;6.686;2023-08-12T10:25:13;0.90;;;0.90;;
13067;SDS011;6600;51.362;6.686;2023-08-12T10:27:38;1.53;;;0.93;;
13067;SDS011;6600;51.362;6.686;2023-08-12T10:30:04;1.80;;;1.00;;
13067;SDS011;6600;51.362;6.686;2023-08-12T10:32:31;0.80;;;0.80;;
13067;SDS011;6600;51.362;6.686;2023-08-12T10:34:57;0.80;;;0.80;;
13067;SDS011;6600;51.362;6.686;2023-08-12T10:37:23;0.80;;;0.70;;
13067;SDS011;6600;51.362;6.686;2023-08-12T10:39:49;0.70;;;0.70;;
13067;SDS011;6600;51.362;6.686;2023-08-12T10:45:07;0.60;;;0.60;;
13067;SDS011;6600;51.362;6.686;2023-08-12T10:47:37;0.90;;;0.70;;
13067;SDS011;6600;51.362;6.686;2023-08-12T10:50:04;0.80;;;0.80;;
13067;SDS011;6600;51.362;6.686;2023-08-12T10:52:31;0.70;;;0.70;;
13067;SDS011;6600;51.362;6.686;2023-08-12T10:55:18;0.70;;;0.70;;
13067;SDS011;6600;51.362;6.686;2023-08-12T10:57:53;0.57;;;0.57;;
13067;SDS011;6600;51.362;6.686;2023-08-12T11:00:23;0.70;;;0.70;;
13067;SDS011;6600;51.362;6.686;2023-08-12T11:02:51;0.67;;;0.60;;
13067;SDS011;6600;51.362;6.686;2023-08-12T11:05:18;0.63;;;0.63;;
13067;SDS011;6600;51.362;6.686;2023-08-12T11:10:18;1.87;;;0.70;;
13067;SDS011;6600;51.362;6.686;2023-08-12T11:17:54;0.83;;;0.63;;
13067;SDS011;6600;51.362;6.686;2023-08-12T11:20:20;0.50;;;0.50;;
13067;SDS011;6600;51.362;6.686;2023-08-12T11:22:45;0.47;;;0.47;;
13067;SDS011;6600;51.362;6.686;2023-08-12T11:25:12;0.63;;;0.63;;
13067;SDS011;6600;51.362;6.686;2023-08-12T11:27:39;0.87;;;0.50;;
13067;SDS011;6600;51.362;6.686;2023-08-12T11:30:09;0.70;;;0.70;;
13067;SDS011;6600;51.362;6.686;2023-08-12T11:32:39;0.77;;;0.77;;
13067;SDS011;6600;51.362;6.686;2023-08-12T11:35:05;0.50;;;0.50;;
13067;SDS011;6600;51.362;6.686;2023-08-12T11:37:33;0.67;;;0.67;;
13067;SDS011;6600;51.362;6.686;2023-08-12T11:40:01;0.97;;;0.50;;
13067;SDS011;6600;51.362;6.686;2023-08-12T11:42:28;0.50;;;0.50;;
13067;SDS011;6600;51.362;6.686;2023-08-12T11:44:53;0.60;;;0.60;;
13067;SDS011;6600;51.362;6.686;2023-08-12T11:47:19;0.60;;;0.60;;
13067;SDS011;6600;51.362;6.686;2023-08-12T11:49:44;1.47;;;1.27;;
13067;SDS011;6600;51.362;6.686;2023-08-12T11:52:09;1.30;;;1.10;;
13067;SDS011;6600;51.362;6.686;2023-08-12T11:54:36;0.87;;;0.87;;
13067;SDS011;6600;51.362;6.686;2023-08-12T11:57:02;1.60;;;1.47;;
13067;SDS011;6600;51.362;6.686;2023-08-12T11:59:28;1.63;;;1.10;;
13067;SDS011;6600;51.362;6.686;2023-08-12T12:01:54;2.93;;;1.53;;
13067;SDS011;6600;51.362;6.686;2023-08-12T12:04:20;1.87;;;1.63;;
13067;SDS011;6600;51.362;6.686;2023-08-12T12:06:46;2.87;;;1.80;;
13067;SDS011;6600;51.362;6.686;2023-08-12T12:09:12;2.00;;;1.80;;
13067;SDS011;6600;51.362;6.686;2023-08-12T12:11:39;2.10;;;1.90;;
13067;SDS011;6600;51.362;6.686;2023-08-12T12:14:06;2.83;;;1.97;;
13067;SDS011;6600;51.362;6.686;2023-08-12T12:16:46;2.03;;;1.70;;
13067;SDS011;6600;51.362;6.686;2023-08-12T12:19:17;2.13;;;1.90;;
13067;SDS011;6600;51.362;6.686;2023-08-12T12:21:50;1.33;;;1.23;;
13067;SDS011;6600;51.362;6.686;2023-08-12T12:24:17;1.87;;;1.30;;
13067;SDS011;6600;51.362;6.686;2023-08-12T12:26:46;1.60;;;1.50;;
13067;SDS011;6600;51.362;6.686;2023-08-12T12:29:12;1.73;;;1.57;;
13067;SDS011;6600;51.362;6.686;2023-08-12T12:31:39;1.87;;;1.60;;
13067;SDS011;6600;51.362;6.686;2023-08-12T12:34:06;2.90;;;1.80;;
13067;SDS011;6600;51.362;6.686;2023-08-12T12:36:33;2.13;;;1.63;;
13067;SDS011;6600;51.362;6.686;2023-08-12T12:39:00;1.83;;;1.60;;
13067;SDS011;6600;51.362;6.686;2023-08-12T12:41:25;1.73;;;1.63;;
13067;SDS011;6600;51.362;6.686;2023-08-12T12:43:51;1.73;;;1.30;;
13067;SDS011;6600;51.362;6.686;2023-08-12T12:46:16;1.70;;;1.47;;
13067;SDS011;6600;51.362;6.686;2023-08-12T12:48:42;1.93;;;1.40;;
13067;SDS011;6600;51.362;6.686;2023-08-12T12:51:08;1.80;;;1.70;;
13067;SDS011;6600;51.362;6.686;2023-08-12T12:53:33;2.73;;;2.00;;
13067;SDS011;6600;51.362;6.686;2023-08-12T12:55:59;3.47;;;2.10;;
13067;SDS011;6600;51.362;6.686;2023-08-12T12:58:29;2.50;;;1.90;;
13067;SDS011;6600;51.362;6.686;2023-08-12T13:00:55;2.37;;;1.80;;
13067;SDS011;6600;51.362;6.686;2023-08-12T13:03:21;3.10;;;2.30;;
13067;SDS011;6600;51.362;6.686;2023-08-12T13:05:46;3.00;;;2.57;;
13067;SDS011;6600;51.362;6.686;2023-08-12T13:08:11;3.07;;;2.37;;
13067;SDS011;6600;51.362;6.686;2023-08-12T13:10:37;3.53;;;2.87;;
13067;SDS011;6600;51.362;6.686;2023-08-12T13:13:02;4.50;;;2.90;;
13067;SDS011;6600;51.362;6.686;2023-08-12T13:15:28;3.40;;;2.30;;
13067;SDS011;6600;51.362;6.686;2023-08-12T13:17:53;3.13;;;2.20;;
13067;SDS011;6600;51.362;6.686;2023-08-12T13:20:19;4.47;;;2.33;;
13067;SDS011;6600;51.362;6.686;2023-08-12T13:22:44;2.83;;;2.13;;
13067;SDS011;6600;51.362;6.686;2023-08-12T13:25:09;3.00;;;2.70;;
13067;SDS011;6600;51.362;6.686;2023-08-12T13:27:35;3.30;;;2.63;;
13067;SDS011;6600;51.362;6.686;2023-08-12T13:30:00;3.13;;;2.73;;
13067;SDS011;6600;51.362;6.686;2023-08-12T13:32:25;4.10;;;2.80;;
13067;SDS011;6600;51.362;6.686;2023-08-12T13:34:50;4.07;;;2.70;;
13067;SDS011;6600;51.362;6.686;2023-08-12T13:37:16;4.73;;;3.10;;
13067;SDS011;6600;51.362;6.686;2023-08-12T13:39:41;4.17;;;3.20;;
13067;SDS011;6600;51.362;6.686;2023-08-12T13:42:06;3.43;;;2.77;;
13067;SDS011;6600;51.362;6.686;2023-08-12T13:44:32;5.23;;;3.77;;
13067;SDS011;6600;51.362;6.686;2023-08-12T13:46:57;4.30;;;3.00;;
13067;SDS011;6600;51.362;6.686;2023-08-12T13:49:22;3.67;;;2.80;;
13067;SDS011;6600;51.362;6.686;2023-08-12T13:51:48;3.27;;;2.97;;
13067;SDS011;6600;51.362;6.686;2023-08-12T13:54:13;3.00;;;2.70;;
13067;SDS011;6600;51.362;6.686;2023-08-12T13:56:38;3.83;;;2.70;;
13067;SDS011;6600;51.362;6.686;2023-08-12T13:59:04;4.97;;;3.13;;
13067;SDS011;6600;51.362;6.686;2023-08-12T14:01:29;3.63;;;3.00;;
13067;SDS011;6600;51.362;6.686;2023-08-12T14:03:54;3.17;;;2.83;;
13067;SDS011;6600;51.362;6.686;2023-08-12T14:06:20;2.57;;;2.27;;
13067;SDS011;6600;51.362;6.686;2023-08-12T14:08:46;3.80;;;2.60;;
13067;SDS011;6600;51.362;6.686;2023-08-12T14:11:11;3.47;;;2.63;;
13067;SDS011;6600;51.362;6.686;2023-08-12T14:13:37;3.30;;;2.30;;
13067;SDS011;6600;51.362;6.686;2023-08-12T14:16:02;2.60;;;2.23;;
13067;SDS011;6600;51.362;6.686;2023-08-12T14:18:27;4.87;;;3.23;;
13067;SDS011;6600;51.362;6.686;2023-08-12T14:20:53;3.03;;;2.10;;
13067;SDS011;6600;51.362;6.686;2023-08-12T14:23:18;2.30;;;2.10;;
13067;SDS011;6600;51.362;6.686;2023-08-12T14:25:43;2.80;;;2.20;;
13067;SDS011;6600;51.362;6.686;2023-08-12T14:28:08;1.93;;;1.73;;
13067;SDS011;6600;51.362;6.686;2023-08-12T14:30:34;2.50;;;1.80;;
13067;SDS011;6600;51.362;6.686;2023-08-12T14:32:59;3.07;;;1.70;;
13067;SDS011;6600;51.362;6.686;2023-08-12T14:35:24;2.27;;;2.07;;
13067;SDS011;6600;51.362;6.686;2023-08-12T14:37:50;2.33;;;2.13;;
13067;SDS011;6600;51.362;6.686;2023-08-12T14:40:15;2.30;;;2.07;;
13067;SDS011;6600;51.362;6.686;2023-08-12T14:42:40;3.70;;;2.37;;
13067;SDS011;6600;51.362;6.686;2023-08-12T14:45:06;2.80;;;2.20;;
13067;SDS011;6600;51.362;6.686;2023-08-12T14:47:32;3.47;;;1.90;;
13067;SDS011;6600;51.362;6.686;2023-08-12T14:49:57;4.07;;;1.90;;
13067;SDS011;6600;51.362;6.686;2023-08-12T14:52:22;2.03;;;1.70;;
13067;SDS011;6600;51.362;6.686;2023-08-12T14:54:48;2.07;;;1.90;;
13067;SDS011;6600;51.362;6.686;2023-08-12T14:57:14;2.10;;;1.90;;
13067;SDS011;6600;51.362;6.686;2023-08-12T14:59:39;1.90;;;1.80;;
13067;SDS011;6600;51.362;6.686;2023-08-12T15:02:05;2.20;;;1.73;;
13067;SDS011;6600;51.362;6.686;2023-08-12T15:04:30;1.77;;;1.53;;